Time;durP1;ratioP1;P1;durP2;ratioP2;P2;SDS_P1;SDS_P2;PMS_P1;PMS_P2;Temp;Humidity;BMP_temperature;BMP_pressure;BME280_temperature;BME280_humidity;BME280_pressure;Samples;Min_cycle;Max_cycle;Signal;HPM_P1;HPM_P2
2023/03/26 00:01:18;;;;;;;5.53;1.40;;;;;;;;;;5095031;28;20044;-93
2023/03/26 00:03:45;;;;;;;4.90;1.33;;;;;;;;;;5095210;28;20425;-92
2023/03/26 00:06:14;;;;;;;4.95;1.20;;;;;;;;;;5095013;28;20040;-94
2023/03/26 00:08:43;;;;;;;5.45;1.38;;;;;;;;;;5094901;28;20052;-93
2023/03/26 00:11:11;;;;;;;1.52;1.00;;;;;;;;;;5094648;28;20048;-94
2023/03/26 00:13:42;;;;;;;3.00;1.02;;;;;;;;;;5096088;28;20105;-95
2023/03/26 00:16:13;;;;;;;2.45;0.82;;;;;;;;;;5095402;28;20442;-93
2023/03/26 00:18:41;;;;;;;3.97;1.00;;;;;;;;;;5094668;28;20063;-93
2023/03/26 00:21:10;;;;;;;3.00;0.80;;;;;;;;;;5094980;28;20048;-93
2023/03/26 00:23:37;;;;;;;7.57;1.38;;;;;;;;;;5097966;28;20140;-94
2023/03/26 00:26:11;;;;;;;8.15;1.20;;;;;;;;;;5094768;28;20054;-93
2023/03/26 00:28:40;;;;;;;4.97;1.20;;;;;;;;;;5107826;28;20042;-93
2023/03/26 00:31:11;;;;;;;3.53;0.80;;;;;;;;;;5112740;28;20051;-93
2023/03/26 00:33:40;;;;;;;7.13;1.17;;;;;;;;;;5096216;28;20040;-93
2023/03/26 00:36:09;;;;;;;1.77;0.63;;;;;;;;;;5101221;28;20134;-92
2023/03/26 00:38:37;;;;;;;2.22;0.60;;;;;;;;;;5095407;28;20059;-93
2023/03/26 00:41:06;;;;;;;1.10;0.82;;;;;;;;;;5097495;28;20048;-93
2023/03/26 00:43:34;;;;;;;1.52;0.57;;;;;;;;;;5095113;28;20052;-93
2023/03/26 00:46:02;;;;;;;3.85;0.98;;;;;;;;;;5095496;28;20143;-94
2023/03/26 00:48:29;;;;;;;3.03;0.88;;;;;;;;;;5112247;28;20052;-93
2023/03/26 00:51:11;;;;;;;3.50;0.60;;;;;;;;;;5099402;28;20547;-94
2023/03/26 00:53:40;;;;;;;5.30;0.90;;;;;;;;;;5094562;28;20056;-93
2023/03/26 00:56:08;;;;;;;1.10;0.70;;;;;;;;;;5095230;28;20040;-94
2023/03/26 00:58:50;;;;;;;4.07;0.80;;;;;;;;;;5094639;28;20082;-93
2023/03/26 01:01:26;;;;;;;2.35;0.88;;;;;;;;;;5096422;28;20052;-94
2023/03/26 01:03:57;;;;;;;3.00;1.10;;;;;;;;;;5094728;28;20138;-94
2023/03/26 01:06:37;;;;;;;1.92;0.80;;;;;;;;;;5097884;28;20389;-94
2023/03/26 01:09:12;;;;;;;4.97;1.17;;;;;;;;;;5095748;28;20131;-94
2023/03/26 01:11:39;;;;;;;2.78;1.40;;;;;;;;;;5095161;28;20055;-94
2023/03/26 01:14:09;;;;;;;5.57;1.05;;;;;;;;;;5096254;28;20466;-93
2023/03/26 01:16:53;;;;;;;3.13;1.10;;;;;;;;;;5095852;28;20047;-95
2023/03/26 01:19:45;;;;;;;4.78;1.10;;;;;;;;;;5120611;22;20091;-79
2023/03/26 01:22:15;;;;;;;7.93;1.45;;;;;;;;;;5057603;28;20059;-78
2023/03/26 01:24:45;;;;;;;2.70;1.10;;;;;;;;;;5037100;28;20049;-78
2023/03/26 01:27:16;;;;;;;5.10;1.52;;;;;;;;;;5037699;28;20048;-79
2023/03/26 01:29:48;;;;;;;3.83;1.50;;;;;;;;;;5055089;28;20121;-79
2023/03/26 01:32:24;;;;;;;3.45;1.15;;;;;;;;;;5037529;28;20135;-78
2023/03/26 01:35:11;;;;;;;4.88;1.00;;;;;;;;;;5036592;28;20492;-79
2023/03/26 01:37:57;;;;;;;4.40;1.40;;;;;;;;;;5036619;28;20052;-78
2023/03/26 01:40:37;;;;;;;6.97;1.60;;;;;;;;;;5054739;28;20505;-78
2023/03/26 01:43:11;;;;;;;2.60;1.38;;;;;;;;;;5036491;28;20091;-79
2023/03/26 01:45:41;;;;;;;7.10;1.80;;;;;;;;;;5053966;28;20419;-78
2023/03/26 01:48:08;;;;;;;5.30;1.67;;;;;;;;;;5054298;28;20123;-78
2023/03/26 01:53:02;;;;;;;3.20;1.75;;;;;;;;;;5071977;22;20044;-93
2023/03/26 01:55:37;;;;;;;6.15;2.28;;;;;;;;;;5072959;28;20564;-92
2023/03/26 01:58:12;;;;;;;13.32;2.22;;;;;;;;;;5072536;28;20056;-92
2023/03/26 02:00:48;;;;;;;8.18;2.58;;;;;;;;;;5073592;28;20430;-93
2023/03/26 02:03:27;;;;;;;6.32;2.20;;;;;;;;;;5073322;28;20045;-93
2023/03/26 02:05:58;;;;;;;2.00;1.80;;;;;;;;;;5072516;28;20102;-93
2023/03/26 02:08:36;;;;;;;8.00;2.22;;;;;;;;;;5072374;28;20492;-93
2023/03/26 02:11:11;;;;;;;6.43;1.90;;;;;;;;;;5075591;28;20479;-93
2023/03/26 02:13:40;;;;;;;4.15;2.05;;;;;;;;;;5075682;28;20059;-93
2023/03/26 02:16:11;;;;;;;3.20;1.80;;;;;;;;;;5079831;28;20058;-93
2023/03/26 02:18:38;;;;;;;7.22;2.80;;;;;;;;;;5079483;28;20057;-92
2023/03/26 02:21:11;;;;;;;3.05;1.85;;;;;;;;;;5073524;28;20052;-93
2023/03/26 02:23:45;;;;;;;6.05;2.33;;;;;;;;;;5072393;28;20060;-93
2023/03/26 02:26:14;;;;;;;5.57;2.10;;;;;;;;;;5073145;28;20068;-93
2023/03/26 02:28:41;;;;;;;2.53;2.20;;;;;;;;;;5073099;28;20424;-92
2023/03/26 02:31:09;;;;;;;2.78;2.58;;;;;;;;;;5055339;28;20044;-93
2023/03/26 02:33:37;;;;;;;5.95;1.90;;;;;;;;;;5072163;28;20079;-92
2023/03/26 02:36:04;;;;;;;8.18;2.35;;;;;;;;;;5072047;28;20141;-93
2023/03/26 02:38:34;;;;;;;5.35;1.63;;;;;;;;;;5072450;28;20049;-93
2023/03/26 02:41:02;;;;;;;8.88;2.00;;;;;;;;;;5073326;28;20076;-94
2023/03/26 02:43:29;;;;;;;3.47;1.83;;;;;;;;;;5071760;28;20052;-93
2023/03/26 02:45:57;;;;;;;9.43;2.50;;;;;;;;;;5071888;28;20047;-93
2023/03/26 02:48:25;;;;;;;7.55;2.33;;;;;;;;;;5074347;28;20048;-91
2023/03/26 02:50:55;;;;;;;7.97;2.30;;;;;;;;;;5078630;28;20045;-93
2023/03/26 02:53:28;;;;;;;6.40;2.72;;;;;;;;;;5079061;28;20059;-92
2023/03/26 02:55:56;;;;;;;8.63;2.58;;;;;;;;;;5096301;28;20131;-93
2023/03/26 02:58:24;;;;;;;9.43;2.47;;;;;;;;;;5095804;28;20045;-92
2023/03/26 03:00:53;;;;;;;6.00;2.10;;;;;;;;;;5095989;28;20107;-92
2023/03/26 03:03:25;;;;;;;9.52;2.00;;;;;;;;;;5096070;28;20143;-93
2023/03/26 03:05:53;;;;;;;14.50;3.45;;;;;;;;;;5096022;28;20403;-92
2023/03/26 03:08:21;;;;;;;10.48;2.80;;;;;;;;;;5079056;28;20051;-91
2023/03/26 03:10:56;;;;;;;12.88;2.83;;;;;;;;;;5096681;28;20048;-92
2023/03/26 03:13:23;;;;;;;16.50;3.15;;;;;;;;;;5096876;28;20048;-92
2023/03/26 03:15:51;;;;;;;7.93;3.03;;;;;;;;;;5096892;28;20131;-92
2023/03/26 03:18:18;;;;;;;7.95;3.00;;;;;;;;;;5095857;28;20056;-93
2023/03/26 03:20:46;;;;;;;11.48;3.20;;;;;;;;;;5096628;28;20040;-92
2023/03/26 03:23:13;;;;;;;12.55;3.65;;;;;;;;;;5096323;28;20048;-92
2023/03/26 03:25:40;;;;;;;11.48;3.53;;;;;;;;;;5095602;28;20063;-92
2023/03/26 03:28:08;;;;;;;9.77;3.67;;;;;;;;;;5096929;28;20150;-93
2023/03/26 03:30:35;;;;;;;8.55;2.95;;;;;;;;;;5079098;28;20052;-92
2023/03/26 03:33:04;;;;;;;8.50;3.17;;;;;;;;;;5097005;28;20047;-92
2023/03/26 03:35:32;;;;;;;7.45;2.70;;;;;;;;;;5095452;28;20109;-92
2023/03/26 03:37:59;;;;;;;7.53;3.03;;;;;;;;;;5096183;28;20070;-91
2023/03/26 03:40:27;;;;;;;13.13;3.17;;;;;;;;;;5095133;28;20044;-91
2023/03/26 03:42:54;;;;;;;13.88;2.70;;;;;;;;;;5095174;28;20051;-92
2023/03/26 03:45:21;;;;;;;10.15;2.78;;;;;;;;;;5095241;28;20075;-91
2023/03/26 03:47:48;;;;;;;9.02;2.63;;;;;;;;;;5095276;28;20086;-91
2023/03/26 03:50:16;;;;;;;10.35;2.47;;;;;;;;;;5094882;28;20044;-91
2023/03/26 03:52:44;;;;;;;8.82;2.20;;;;;;;;;;5094524;28;20074;-91
2023/03/26 03:55:12;;;;;;;11.95;3.03;;;;;;;;;;5095280;28;20054;-92
2023/03/26 03:57:40;;;;;;;11.02;2.88;;;;;;;;;;5095299;28;20063;-92
2023/03/26 04:00:08;;;;;;;6.63;2.78;;;;;;;;;;5076925;28;20090;-91
2023/03/26 04:02:36;;;;;;;11.65;5.32;;;;;;;;;;5094748;28;20139;-90
2023/03/26 04:05:04;;;;;;;12.00;4.47;;;;;;;;;;5094626;28;20586;-92
2023/03/26 04:07:32;;;;;;;11.45;2.55;;;;;;;;;;5094660;28;20058;-92
2023/03/26 04:10:01;;;;;;;5.85;2.40;;;;;;;;;;5094791;28;20079;-92
2023/03/26 04:12:29;;;;;;;7.70;2.47;;;;;;;;;;5094918;28;20070;-92
2023/03/26 04:14:57;;;;;;;10.40;2.47;;;;;;;;;;5094657;28;20181;-92
2023/03/26 04:17:25;;;;;;;15.35;3.58;;;;;;;;;;5094601;28;20131;-93
2023/03/26 04:19:53;;;;;;;24.00;8.93;;;;;;;;;;5094881;28;20503;-90
2023/03/26 04:22:22;;;;;;;6.65;2.97;;;;;;;;;;5094148;28;20139;-93
2023/03/26 04:24:53;;;;;;;5.65;2.10;;;;;;;;;;5094802;28;20543;-92
2023/03/26 04:27:26;;;;;;;8.65;2.42;;;;;;;;;;5094332;28;20048;-92
2023/03/26 04:29:53;;;;;;;9.88;2.35;;;;;;;;;;5094795;28;20082;-92
2023/03/26 04:32:33;;;;;;;4.38;2.15;;;;;;;;;;5094099;28;20048;-93
2023/03/26 04:35:04;;;;;;;3.30;1.55;;;;;;;;;;5094331;28;20510;-91
2023/03/26 04:37:33;;;;;;;6.95;1.92;;;;;;;;;;5077967;28;20063;-92
2023/03/26 04:40:05;;;;;;;11.05;2.67;;;;;;;;;;5094074;28;20054;-92
2023/03/26 04:42:32;;;;;;;5.72;2.13;;;;;;;;;;5093971;28;20056;-92
2023/03/26 04:45:01;;;;;;;10.27;2.60;;;;;;;;;;5076869;28;20071;-93
2023/03/26 04:47:29;;;;;;;6.68;2.22;;;;;;;;;;5093856;28;20144;-93
2023/03/26 04:49:56;;;;;;;9.20;2.20;;;;;;;;;;5076834;28;20052;-92
2023/03/26 04:52:23;;;;;;;6.70;3.08;;;;;;;;;;5093640;28;20044;-92
2023/03/26 04:54:51;;;;;;;9.45;2.03;;;;;;;;;;5093571;28;20052;-92
2023/03/26 04:57:36;;;;;;;14.13;2.03;;;;;;;;;;5093581;28;20056;-92
2023/03/26 05:00:13;;;;;;;8.93;2.72;;;;;;;;;;5093902;28;20087;-92
2023/03/26 05:02:41;;;;;;;13.68;2.40;;;;;;;;;;5093429;28;20044;-92
2023/03/26 05:05:10;;;;;;;8.85;1.90;;;;;;;;;;5093441;28;20044;-93
2023/03/26 05:07:37;;;;;;;6.30;2.10;;;;;;;;;;5094428;28;20533;-92
2023/03/26 05:10:05;;;;;;;10.38;2.58;;;;;;;;;;5093161;28;20058;-92
2023/03/26 05:12:33;;;;;;;7.72;1.95;;;;;;;;;;5093531;28;20052;-92
2023/03/26 05:15:00;;;;;;;9.43;1.83;;;;;;;;;;5094527;28;20112;-92
2023/03/26 05:17:29;;;;;;;13.30;3.13;;;;;;;;;;5093341;28;20052;-92
2023/03/26 05:19:57;;;;;;;8.55;2.88;;;;;;;;;;5096343;28;20040;-92
2023/03/26 05:22:24;;;;;;;11.63;3.38;;;;;;;;;;5065196;28;20135;-93
2023/03/26 05:24:51;;;;;;;8.52;3.10;;;;;;;;;;5071661;28;20052;-92
2023/03/26 05:27:19;;;;;;;13.60;3.80;;;;;;;;;;5067059;28;20055;-93
2023/03/26 05:29:46;;;;;;;13.43;4.03;;;;;;;;;;5064247;28;20059;-92
2023/03/26 05:32:13;;;;;;;19.02;3.90;;;;;;;;;;5076910;28;20044;-94
2023/03/26 05:34:41;;;;;;;23.67;4.38;;;;;;;;;;5056105;28;20071;-91
2023/03/26 05:37:08;;;;;;;22.77;4.05;;;;;;;;;;5056275;28;20421;-92
2023/03/26 05:39:35;;;;;;;10.55;3.33;;;;;;;;;;5056049;28;20051;-92
2023/03/26 05:42:02;;;;;;;15.70;4.72;;;;;;;;;;5056627;28;20048;-93
2023/03/26 05:44:30;;;;;;;19.15;5.53;;;;;;;;;;5056056;28;20078;-93
2023/03/26 05:46:59;;;;;;;14.45;4.35;;;;;;;;;;5056422;28;20044;-92
2023/03/26 05:49:27;;;;;;;16.75;5.10;;;;;;;;;;5055703;28;20049;-92
2023/03/26 05:51:54;;;;;;;24.48;5.07;;;;;;;;;;5063316;28;20152;-92
2023/03/26 05:54:21;;;;;;;30.17;10.63;;;;;;;;;;5073371;28;20098;-92
2023/03/26 05:56:50;;;;;;;24.33;6.65;;;;;;;;;;5072237;28;20059;-92
2023/03/26 05:59:17;;;;;;;17.30;4.93;;;;;;;;;;5073670;28;20058;-92
2023/03/26 06:01:44;;;;;;;10.10;4.07;;;;;;;;;;5072139;28;20056;-93
2023/03/26 06:04:12;;;;;;;13.88;4.47;;;;;;;;;;5072203;28;20135;-93
2023/03/26 06:06:40;;;;;;;12.00;3.95;;;;;;;;;;5072739;28;20050;-93
2023/03/26 06:09:07;;;;;;;24.60;8.10;;;;;;;;;;5072645;28;20119;-93
2023/03/26 06:11:34;;;;;;;18.58;5.78;;;;;;;;;;5072322;28;20047;-92
2023/03/26 06:14:01;;;;;;;18.85;5.07;;;;;;;;;;5072118;28;20576;-92
2023/03/26 06:16:29;;;;;;;11.18;5.70;;;;;;;;;;5072210;28;20052;-92
2023/03/26 06:18:56;;;;;;;17.42;6.35;;;;;;;;;;5071305;28;20057;-93
2023/03/26 06:21:27;;;;;;;11.82;6.13;;;;;;;;;;5072536;28;20098;-91
2023/03/26 06:23:55;;;;;;;11.90;3.13;;;;;;;;;;5075324;28;20048;-92
2023/03/26 06:26:22;;;;;;;18.25;3.00;;;;;;;;;;5075959;28;20052;-92
2023/03/26 06:28:49;;;;;;;12.57;2.30;;;;;;;;;;5076978;28;20056;-91
2023/03/26 06:31:18;;;;;;;10.68;2.25;;;;;;;;;;5079929;28;20136;-91
2023/03/26 06:33:45;;;;;;;10.60;2.05;;;;;;;;;;5077147;28;20056;-91
2023/03/26 06:36:13;;;;;;;7.40;1.92;;;;;;;;;;5075918;28;20085;-91
2023/03/26 06:38:40;;;;;;;6.55;2.38;;;;;;;;;;5076456;28;20056;-90
2023/03/26 06:41:07;;;;;;;11.75;2.17;;;;;;;;;;5076260;28;20048;-90
2023/03/26 06:43:35;;;;;;;6.88;1.45;;;;;;;;;;5075165;28;20048;-90
2023/03/26 06:46:03;;;;;;;9.00;2.03;;;;;;;;;;5075036;28;20044;-90
2023/03/26 06:48:30;;;;;;;7.13;2.55;;;;;;;;;;5075984;28;20102;-90
2023/03/26 06:50:58;;;;;;;9.95;2.25;;;;;;;;;;5073317;28;20071;-90
2023/03/26 06:53:25;;;;;;;9.43;1.65;;;;;;;;;;5038655;28;20045;-90
2023/03/26 06:55:53;;;;;;;9.13;1.75;;;;;;;;;;5038692;28;20566;-89
2023/03/26 06:58:21;;;;;;;7.40;1.52;;;;;;;;;;5055784;28;20045;-89
2023/03/26 07:00:52;;;;;;;7.47;1.33;;;;;;;;;;5038656;28;20052;-89
2023/03/26 07:03:19;;;;;;;8.00;1.67;;;;;;;;;;5056156;28;20045;-90
2023/03/26 07:05:47;;;;;;;13.23;2.38;;;;;;;;;;5038651;28;20055;-89
2023/03/26 07:08:14;;;;;;;7.97;1.45;;;;;;;;;;5038351;28;20049;-90
2023/03/26 07:10:42;;;;;;;6.20;1.58;;;;;;;;;;5055815;28;20051;-89
2023/03/26 07:13:09;;;;;;;5.50;1.65;;;;;;;;;;5055659;28;20118;-89
2023/03/26 07:15:36;;;;;;;16.67;1.60;;;;;;;;;;5037986;28;20055;-89
2023/03/26 07:18:03;;;;;;;6.72;1.88;;;;;;;;;;5038257;28;20059;-89
2023/03/26 07:20:31;;;;;;;6.90;1.63;;;;;;;;;;5037930;28;20472;-89
2023/03/26 07:22:58;;;;;;;10.00;1.92;;;;;;;;;;5055396;28;20417;-89
2023/03/26 07:25:29;;;;;;;9.48;1.90;;;;;;;;;;5055287;28;20045;-88
2023/03/26 07:28:07;;;;;;;4.75;1.30;;;;;;;;;;5055357;28;20083;-89
2023/03/26 07:30:49;;;;;;;9.68;1.38;;;;;;;;;;5055433;28;20059;-89
2023/03/26 07:33:24;;;;;;;6.15;1.27;;;;;;;;;;5037622;28;20490;-89
2023/03/26 07:36:07;;;;;;;7.10;1.52;;;;;;;;;;5037552;28;20051;-89
2023/03/26 07:38:54;;;;;;;6.90;2.13;;;;;;;;;;5055180;28;20049;-89
2023/03/26 07:41:41;;;;;;;9.48;1.75;;;;;;;;;;5055156;28;20044;-89
2023/03/26 07:44:27;;;;;;;9.13;1.27;;;;;;;;;;5037521;28;20051;-88
2023/03/26 07:46:54;;;;;;;8.25;1.80;;;;;;;;;;5037550;28;20472;-89
2023/03/26 07:49:21;;;;;;;6.18;1.30;;;;;;;;;;5037257;28;20052;-89
2023/03/26 07:51:49;;;;;;;9.02;1.42;;;;;;;;;;5042368;28;20620;-88
2023/03/26 07:54:16;;;;;;;8.38;1.35;;;;;;;;;;5053750;28;20532;-89
2023/03/26 07:56:52;;;;;;;8.18;1.73;;;;;;;;;;5053697;28;20049;-89
2023/03/26 07:59:25;;;;;;;4.25;1.40;;;;;;;;;;5054138;28;20049;-89
2023/03/26 08:02:04;;;;;;;6.68;1.80;;;;;;;;;;5054867;28;20171;-89
2023/03/26 08:04:40;;;;;;;7.55;1.60;;;;;;;;;;5053095;28;20389;-89
2023/03/26 08:07:17;;;;;;;6.47;1.55;;;;;;;;;;5054613;28;20052;-90
2023/03/26 08:10:02;;;;;;;7.05;1.60;;;;;;;;;;5053757;28;20052;-89
2023/03/26 08:12:29;;;;;;;3.58;1.48;;;;;;;;;;5055164;28;20115;-90
2023/03/26 08:14:56;;;;;;;8.35;1.73;;;;;;;;;;5054676;28;20051;-89
2023/03/26 08:17:31;;;;;;;5.93;1.35;;;;;;;;;;5054333;28;20053;-89
2023/03/26 08:20:08;;;;;;;7.82;1.85;;;;;;;;;;5053901;28;20045;-89
2023/03/26 08:22:40;;;;;;;9.95;2.05;;;;;;;;;;5053229;28;20485;-89
2023/03/26 08:25:19;;;;;;;9.23;2.42;;;;;;;;;;5053487;28;20139;-89
2023/03/26 08:27:51;;;;;;;8.48;1.90;;;;;;;;;;5054324;28;20044;-89
2023/03/26 08:30:25;;;;;;;7.40;1.60;;;;;;;;;;5055688;28;20045;-89
2023/03/26 08:32:57;;;;;;;7.22;1.52;;;;;;;;;;5063894;28;20099;-89
2023/03/26 08:35:25;;;;;;;6.32;1.75;;;;;;;;;;5054928;28;20131;-89
2023/03/26 08:37:53;;;;;;;8.65;1.52;;;;;;;;;;5063914;28;20041;-90
2023/03/26 08:40:39;;;;;;;9.52;1.83;;;;;;;;;;5055501;28;20048;-89
2023/03/26 08:43:16;;;;;;;5.72;1.27;;;;;;;;;;5053686;28;20049;-89
2023/03/26 08:45:56;;;;;;;10.13;1.70;;;;;;;;;;5062187;28;20474;-89
2023/03/26 08:48:27;;;;;;;9.73;1.73;;;;;;;;;;5053133;28;20045;-89
2023/03/26 08:50:55;;;;;;;10.90;2.10;;;;;;;;;;5065064;28;20142;-89
2023/03/26 08:53:41;;;;;;;9.85;2.35;;;;;;;;;;5084341;28;20471;-89
2023/03/26 08:56:32;;;;;;;16.75;6.30;;;;;;;;;;5082332;28;20086;-89
2023/03/26 08:59:18;;;;;;;14.95;3.63;;;;;;;;;;5099323;28;20070;-89
2023/03/26 09:02:04;;;;;;;7.65;2.78;;;;;;;;;;5101147;28;20044;-89
2023/03/26 09:05:02;;;;;;;6.07;2.33;;;;;;;;;;5099013;28;20051;-88
2023/03/26 09:07:48;;;;;;;10.30;2.83;;;;;;;;;;5091076;28;20059;-88
2023/03/26 09:10:28;;;;;;;8.60;2.40;;;;;;;;;;5076210;28;20138;-89
2023/03/26 09:12:55;;;;;;;7.47;1.73;;;;;;;;;;5064747;28;20108;-89
2023/03/26 09:15:41;;;;;;;10.07;4.20;;;;;;;;;;5064820;28;20048;-89
2023/03/26 09:18:27;;;;;;;9.95;3.38;;;;;;;;;;5081678;28;20119;-88
2023/03/26 09:21:09;;;;;;;7.93;2.20;;;;;;;;;;5056176;28;20409;-88
2023/03/26 09:23:48;;;;;;;6.05;1.60;;;;;;;;;;5055549;28;20158;-88
2023/03/26 09:26:34;;;;;;;11.65;3.88;;;;;;;;;;5073175;28;20056;-88
2023/03/26 09:29:30;;;;;;;8.68;2.13;;;;;;;;;;5073259;28;20504;-88
2023/03/26 09:32:08;;;;;;;9.85;3.60;;;;;;;;;;5073296;28;20109;-89
2023/03/26 09:35:02;;;;;;;6.35;2.13;;;;;;;;;;5055686;28;20058;-89
2023/03/26 09:37:48;;;;;;;8.40;2.35;;;;;;;;;;5055674;28;20050;-89
2023/03/26 09:40:35;;;;;;;7.68;1.90;;;;;;;;;;5056893;28;20044;-89
2023/03/26 09:43:19;;;;;;;8.40;1.60;;;;;;;;;;5057574;28;20127;-88
2023/03/26 09:45:52;;;;;;;5.22;1.75;;;;;;;;;;5098663;28;20048;-89
2023/03/26 09:48:28;;;;;;;5.75;1.58;;;;;;;;;;5091122;28;20068;-89
2023/03/26 09:50:58;;;;;;;6.68;2.35;;;;;;;;;;5093268;28;20083;-89
2023/03/26 09:53:37;;;;;;;8.43;2.10;;;;;;;;;;5069187;28;20060;-88
2023/03/26 09:56:13;;;;;;;6.18;1.38;;;;;;;;;;5098169;28;20071;-89
2023/03/26 09:58:43;;;;;;;5.68;1.45;;;;;;;;;;5083952;28;20065;-88
2023/03/26 10:01:24;;;;;;;9.23;1.70;;;;;;;;;;5064157;28;20044;-89
2023/03/26 10:03:58;;;;;;;11.43;1.50;;;;;;;;;;5097985;28;20048;-89
2023/03/26 10:06:45;;;;;;;7.70;1.30;;;;;;;;;;5087206;28;20055;-89
2023/03/26 10:09:26;;;;;;;4.53;1.20;;;;;;;;;;5075386;28;20143;-88
2023/03/26 10:11:56;;;;;;;9.25;1.50;;;;;;;;;;5075304;28;20052;-88
2023/03/26 10:14:32;;;;;;;6.38;1.38;;;;;;;;;;5074483;28;20052;-89
2023/03/26 10:17:04;;;;;;;12.82;2.47;;;;;;;;;;5074963;28;20063;-88
2023/03/26 10:20:07;;;;;;;8.10;2.13;;;;;;;;;;5075045;28;20048;-88
2023/03/26 10:22:52;;;;;;;7.72;1.55;;;;;;;;;;5023015;28;20048;-88
2023/03/26 10:25:23;;;;;;;7.10;1.60;;;;;;;;;;5074217;28;20131;-89
2023/03/26 10:27:50;;;;;;;11.75;2.42;;;;;;;;;;5093312;28;20041;-88
2023/03/26 10:30:23;;;;;;;4.53;1.20;;;;;;;;;;5093070;28;20048;-89
2023/03/26 10:32:50;;;;;;;9.18;1.70;;;;;;;;;;5075568;28;20044;-89
2023/03/26 10:35:30;;;;;;;5.43;1.27;;;;;;;;;;5075595;28;20048;-88
2023/03/26 10:38:09;;;;;;;7.57;1.30;;;;;;;;;;5076172;28;20147;-89
2023/03/26 10:40:55;;;;;;;10.75;1.30;;;;;;;;;;5075517;28;20059;-89
2023/03/26 10:43:35;;;;;;;8.77;1.90;;;;;;;;;;5093311;28;20063;-89
2023/03/26 10:46:21;;;;;;;10.70;1.70;;;;;;;;;;5075605;28;20044;-89
2023/03/26 10:49:02;;;;;;;10.80;1.60;;;;;;;;;;5075760;28;20069;-89
2023/03/26 10:51:36;;;;;;;10.48;2.38;;;;;;;;;;5093262;28;20064;-88
2023/03/26 10:54:10;;;;;;;6.63;1.75;;;;;;;;;;5075676;28;20059;-89
2023/03/26 10:56:40;;;;;;;4.95;1.70;;;;;;;;;;5074708;28;20410;-90
2023/03/26 10:59:10;;;;;;;10.43;2.03;;;;;;;;;;5075427;28;20052;-89
2023/03/26 11:01:38;;;;;;;10.10;1.60;;;;;;;;;;5075468;28;20491;-90
2023/03/26 11:04:11;;;;;;;4.97;1.85;;;;;;;;;;5093157;28;20146;-89
2023/03/26 11:06:49;;;;;;;8.93;1.65;;;;;;;;;;5093344;28;20048;-90
2023/03/26 11:09:28;;;;;;;10.93;1.70;;;;;;;;;;5095454;28;20135;-90
2023/03/26 11:12:05;;;;;;;11.07;1.60;;;;;;;;;;5097258;28;20067;-88
2023/03/26 11:15:11;;;;;;;8.43;2.15;;;;;;;;;;5096784;28;20415;-89
2023/03/26 11:18:01;;;;;;;10.30;2.13;;;;;;;;;;5078840;28;20134;-89
2023/03/26 11:20:47;;;;;;;9.30;1.42;;;;;;;;;;5079155;28;20121;-90
2023/03/26 11:23:22;;;;;;;8.57;1.63;;;;;;;;;;5097010;28;20075;-90
2023/03/26 11:26:18;;;;;;;8.85;1.92;;;;;;;;;;5074930;28;20098;-89
2023/03/26 11:28:58;;;;;;;8.68;1.80;;;;;;;;;;5048063;28;20119;-88
2023/03/26 11:31:45;;;;;;;6.72;1.73;;;;;;;;;;5095697;28;20047;-90
2023/03/26 11:34:18;;;;;;;6.65;1.70;;;;;;;;;;5070981;28;20041;-90
2023/03/26 11:36:51;;;;;;;5.40;1.75;;;;;;;;;;5088106;28;20073;-90
2023/03/26 11:39:18;;;;;;;;;;;;;;;;;;5087574;28;20117;-90
2023/03/26 11:41:46;;;;;;;6.22;1.90;;;;;;;;;;5067739;28;19925;-91
2023/03/26 11:44:20;;;;;;;5.30;1.08;;;;;;;;;;5067663;28;20547;-92
2023/03/26 11:46:49;;;;;;;4.88;1.05;;;;;;;;;;5068028;28;20059;-90
2023/03/26 11:49:18;;;;;;;5.28;1.02;;;;;;;;;;5068086;28;20488;-91
2023/03/26 11:51:47;;;;;;;1.42;0.70;;;;;;;;;;5051524;28;20060;-92
2023/03/26 11:54:15;;;;;;;2.13;0.50;;;;;;;;;;5038324;28;20051;-94
2023/03/26 11:56:44;;;;;;;1.60;0.40;;;;;;;;;;5038830;28;20083;-92
2023/03/26 11:59:35;;;;;;;1.02;0.40;;;;;;;;;;5041580;28;20102;-92
2023/03/26 12:02:31;;;;;;;0.28;0.28;;;;;;;;;;5040441;28;20073;-91
2023/03/26 12:05:18;;;;;;;1.08;0.63;;;;;;;;;;5038721;28;20106;-93
2023/03/26 12:07:47;;;;;;;0.20;0.20;;;;;;;;;;5045064;28;20048;-92
2023/03/26 12:10:23;;;;;;;0.30;0.20;;;;;;;;;;5044380;28;20049;-91
2023/03/26 12:12:53;;;;;;;0.70;0.30;;;;;;;;;;5046532;28;20061;-92
2023/03/26 12:15:21;;;;;;;0.45;0.10;;;;;;;;;;5042940;28;20068;-91
2023/03/26 12:17:52;;;;;;;2.22;0.40;;;;;;;;;;5042349;28;20529;-91
2023/03/26 12:20:34;;;;;;;2.75;1.52;;;;;;;;;;5041849;28;20489;-91
2023/03/26 12:23:03;;;;;;;2.67;0.45;;;;;;;;;;5042625;28;20055;-91
2023/03/26 12:25:32;;;;;;;0.82;0.82;;;;;;;;;;5041641;28;20061;-91
2023/03/26 12:28:04;;;;;;;0.88;0.40;;;;;;;;;;5041390;28;20041;-93
2023/03/26 12:30:33;;;;;;;0.88;0.30;;;;;;;;;;5042708;28;20535;-91
2023/03/26 12:33:05;;;;;;;0.65;0.30;;;;;;;;;;5041717;28;20047;-92
2023/03/26 12:35:34;;;;;;;0.52;0.40;;;;;;;;;;5041752;28;20535;-89
2023/03/26 12:38:22;;;;;;;1.13;0.40;;;;;;;;;;5040110;28;20059;-92
2023/03/26 12:41:03;;;;;;;0.93;0.35;;;;;;;;;;5038475;28;20137;-92
2023/03/26 12:43:42;;;;;;;0.45;0.40;;;;;;;;;;5037934;28;20071;-90
2023/03/26 12:46:31;;;;;;;1.83;0.20;;;;;;;;;;5045477;28;20493;-92
2023/03/26 12:49:18;;;;;;;1.35;0.30;;;;;;;;;;5043090;28;20443;-91
2023/03/26 12:51:46;;;;;;;1.65;0.32;;;;;;;;;;5043011;28;20060;-90
2023/03/26 12:54:32;;;;;;;0.65;0.30;;;;;;;;;;5053664;28;20052;-90
2023/03/26 12:57:12;;;;;;;1.38;0.30;;;;;;;;;;5053754;28;20055;-92
2023/03/26 12:59:47;;;;;;;0.43;0.25;;;;;;;;;;5052910;28;20053;-90
2023/03/26 13:02:34;;;;;;;0.47;0.47;;;;;;;;;;5053429;28;20052;-91
2023/03/26 13:05:20;;;;;;;0.20;0.20;;;;;;;;;;5053109;28;20049;-90
2023/03/26 13:08:06;;;;;;;0.70;0.30;;;;;;;;;;5053380;28;20084;-90
2023/03/26 13:10:48;;;;;;;0.20;0.20;;;;;;;;;;5053277;28;20052;-91
2023/03/26 13:13:20;;;;;;;1.75;0.40;;;;;;;;;;5053364;28;20068;-91
2023/03/26 13:15:57;;;;;;;2.15;0.47;;;;;;;;;;5053327;28;20456;-90
2023/03/26 13:18:47;;;;;;;0.68;0.40;;;;;;;;;;5056439;28;20572;-91
2023/03/26 13:21:22;;;;;;;0.40;0.40;;;;;;;;;;5056331;28;20531;-91
2023/03/26 13:23:55;;;;;;;1.10;0.88;;;;;;;;;;5056270;28;20051;-91
2023/03/26 13:26:36;;;;;;;1.08;0.70;;;;;;;;;;5056518;28;20060;-92
2023/03/26 13:29:11;;;;;;;1.15;0.40;;;;;;;;;;5056420;28;20074;-90
2023/03/26 13:31:43;;;;;;;1.80;0.70;;;;;;;;;;5055916;28;20052;-91
2023/03/26 13:34:17;;;;;;;0.73;0.73;;;;;;;;;;5056655;28;20102;-91
2023/03/26 13:37:02;;;;;;;0.45;0.40;;;;;;;;;;5055853;28;20051;-90
2023/03/26 13:39:33;;;;;;;1.10;0.28;;;;;;;;;;5056334;28;20105;-89
2023/03/26 13:42:14;;;;;;;0.45;0.40;;;;;;;;;;5056081;28;20055;-90
2023/03/26 13:45:03;;;;;;;0.77;0.35;;;;;;;;;;5056037;28;20488;-89
2023/03/26 13:47:36;;;;;;;0.32;0.20;;;;;;;;;;5056502;28;20111;-90
2023/03/26 13:50:26;;;;;;;0.35;0.20;;;;;;;;;;5055768;28;20508;-90
2023/03/26 13:52:59;;;;;;;0.22;0.10;;;;;;;;;;5087746;28;20060;-90
2023/03/26 13:55:32;;;;;;;0.90;0.30;;;;;;;;;;5094094;28;20047;-90
2023/03/26 13:58:10;;;;;;;0.20;0.20;;;;;;;;;;5093924;28;20054;-90
2023/03/26 14:01:09;;;;;;;0.63;0.30;;;;;;;;;;5092735;28;20495;-89
2023/03/26 14:03:52;;;;;;;0.30;0.20;;;;;;;;;;5049691;28;20048;-90
2023/03/26 14:06:22;;;;;;;1.00;0.30;;;;;;;;;;5092714;28;20127;-89
2023/03/26 14:08:53;;;;;;;0.22;0.20;;;;;;;;;;5092741;28;20047;-89
2023/03/26 14:11:25;;;;;;;0.20;0.20;;;;;;;;;;5092707;28;20052;-89
2023/03/26 14:14:02;;;;;;;0.77;0.63;;;;;;;;;;5092747;28;20048;-90
2023/03/26 14:16:38;;;;;;;1.92;1.30;;;;;;;;;;5092298;28;20055;-90
2023/03/26 14:19:11;;;;;;;1.55;1.23;;;;;;;;;;5093138;28;20078;-89
2023/03/26 14:21:54;;;;;;;2.35;0.57;;;;;;;;;;5092495;28;20076;-90
2023/03/26 14:24:33;;;;;;;0.40;0.40;;;;;;;;;;5092619;28;20056;-89
2023/03/26 14:27:09;;;;;;;1.02;0.35;;;;;;;;;;5093783;28;20056;-90
2023/03/26 14:29:56;;;;;;;5.75;0.47;;;;;;;;;;5092726;28;20040;-89
2023/03/26 14:32:23;;;;;;;0.20;0.20;;;;;;;;;;5093240;28;20056;-89
2023/03/26 14:35:10;;;;;;;0.30;0.30;;;;;;;;;;5092477;28;20097;-89
2023/03/26 14:37:37;;;;;;;1.75;0.65;;;;;;;;;;5093622;28;20051;-89
2023/03/26 14:40:23;;;;;;;0.38;0.30;;;;;;;;;;5093244;28;20496;-89
2023/03/26 14:42:57;;;;;;;0.70;0.50;;;;;;;;;;5092607;28;20044;-91
2023/03/26 14:45:25;;;;;;;4.72;3.28;;;;;;;;;;5095123;28;20048;-90
2023/03/26 14:48:10;;;;;;;1.08;0.77;;;;;;;;;;5097717;28;20052;-90
2023/03/26 14:50:46;;;;;;;0.30;0.30;;;;;;;;;;5097188;28;20131;-89
2023/03/26 14:53:34;;;;;;;0.70;0.43;;;;;;;;;;5098875;28;20059;-89
2023/03/26 14:56:15;;;;;;;0.75;0.47;;;;;;;;;;5106917;28;20071;-89
2023/03/26 14:58:43;;;;;;;0.85;0.60;;;;;;;;;;5096759;28;20130;-89
2023/03/26 15:01:21;;;;;;;2.40;1.38;;;;;;;;;;5097275;28;20123;-89
2023/03/26 15:03:49;;;;;;;2.75;1.48;;;;;;;;;;5096173;28;20105;-89
2023/03/26 15:06:28;;;;;;;1.45;0.77;;;;;;;;;;5096029;28;20052;-89
2023/03/26 15:09:23;;;;;;;1.25;0.47;;;;;;;;;;5096209;28;20135;-89
2023/03/26 15:12:05;;;;;;;1.00;0.52;;;;;;;;;;5095890;28;20054;-89
2023/03/26 15:14:54;;;;;;;1.98;0.77;;;;;;;;;;5095983;28;20052;-89
2023/03/26 15:17:36;;;;;;;1.55;0.70;;;;;;;;;;5096868;28;20075;-88
2023/03/26 15:20:26;;;;;;;1.75;1.10;;;;;;;;;;5095530;28;20044;-89
2023/03/26 15:23:10;;;;;;;0.70;0.70;;;;;;;;;;5097276;28;20076;-90